Архив погоды в Янги-Югане

Метеограмма Янги-Юган
Среда, 21 Августа
Время местн. Темп Ветер Видим Явления Облачность нижн/средн/верх Атм. давл. Влжн Точка росы ВНГО R Сост. почвы Tg s
Напр Скр Прв ур.ст ур.м изм
23:00 - +11.3° В,Ю-В 1 - - - - 762 765 -0.8 86% +9.1° - - - - -
20:00 +13.8° В 1 - 50 км - переменная облачность 763 766 -0.8 82% +10.7° более 2.5 км 0 - - -
17:00 - +20.3° штиль 0 - - - - 764 767 -1.1 48% +8.8° - - - - -
14:00 +19.1° Ю-З 1 - 50 км - ясно 765 768 -0.9 55% +9.8° более 2.5 км - - - -
11:00 - +16.4° С,С-В 1 - - - - 766 769 -0.2 69% +10.6° - - - - -
08:00 +9.6° С,С-В 1 - 0.5 км туман, небо видно ясно 766 770 -0.2 93% +8.5° более 2.5 км 0 Влажная (без луж) - -
05:00 - +6.9° штиль 0 - - - - 767 770 0 93% +5.8° - - - - -
02:00 - +7.9° С-В 2 - - - - 767 770 -0.2 93% +6.8° - - - - -
Вторник, 20 Августа
Время местн. Темп Ветер Видим Явления Облачность нижн/средн/верх Атм. давл. Влжн Точка росы ВНГО R Сост. почвы Tg s
Напр Скр Прв ур.ст ур.м изм
23:00 - +10° С-В 2 - - - - 767 770 +0.2 90% +8.5° - - - - -
20:00 +14° С,С-В 1 - более 50 км - переменная облачность 767 770 -0.2 78% +10.3° более 2.5 км 0 - - -
17:00 +18.1° С-В 2 - более 50 км - ясно 767 770 0 56% +9.2° более 2.5 км - - - -
14:00 +18.3° С-В 3 - 50 км - переменная облачность 767 770 0 56% +9.4° 1 км - - - -
11:00 - +16.7° В,С-В 3 - - - - 768 771 -0.2 66% +10.3° - - - - -
08:00 +14.6° В,С-В 1 - 50 км - облачно с прояснениями 768 771 -0.2 81% +11.4° 1 км 0 Влажная (без луж) - -
05:00 - +10.8° С 1 - - - - 768 771 -0.2 93% +9.7° - - - - -
02:00 +9.8° С 1 - более 50 км - облачно 768 771 -0.2 93% +8.7° более 2.5 км - - - -
Понедельник, 19 Августа
Время местн. Темп Ветер Видим Явления Облачность нижн/средн/верх Атм. давл. Влжн Точка росы ВНГО R Сост. почвы Tg s
Напр Скр Прв ур.ст ур.м изм
23:00 - +8.4° С 1 - - - - 768 772 0 92% +7.2° - - - - -
20:00 +11.8° С-В 1 - более 50 км - переменная облачность 768 771 -0.2 82% +8.8° более 2.5 км 0 - - -
17:00 +14.9° С,С-В 2 - 50 км - переменная облачность 768 772 -0.2 64% +8.2° 1 км - - - -
14:00 +13.8° С 2 - 50 км - преимущественно облачно 769 772 -0.3 66% +7.6° 1 км - - - -
11:00 - +10.8° С 2 - - - - 769 772 +0.3 74% +6.3° - - - - -
08:00 +8.3° С,С-В 2 - 50 км небо без изменений {туман} облачно 769 772 +0.5 90% +6.8° 1 км 0 Сырая (есть малые или большие лужи) - -
05:00 - +7.4° С,С-В 2 - - - - 768 771 +1.3 93% +6.3° - - - - -
02:00 +5.3° С 1 - 50 км - ясно 767 770 +0.6 91% +4° более 2.5 км - - - -
Воскресенье, 18 Августа
Время местн. Темп Ветер Видим Явления Облачность нижн/средн/верх Атм. давл. Влжн Точка росы ВНГО R Сост. почвы Tg s
Напр Скр Прв ур.ст ур.м изм
23:00 - +7.8° С,С-В 1 - - - - 766 770 +1 91% +6.4° - - - - -
20:00 +13.1° С,С-З 1 - 50 км - облачно с прояснениями 765 769 +0.8 71% +8° - 0.3 - - -